SAZS

San Carlos De Bariloche Airport

San Carlos de Bariloche, Argentina
METAR SAZS 172300Z 27022KT 9999 SCT060 09/02 Q1018
Observed Flight Rules
Nov-17 @ 23:00 UTC (37 minutes ago) Visual Flight Rules
Wind Visibility Clouds
270° at 22 knots 10,000+ meters
  • Scattered at 6,000' AGL
Temperatures Readings
Current 9°C / 48°F
Dewpoint 2°C / 36°F
Humidity 62%
Altimeter 30.06" Hg
Pressure 1018 hPa
Elevation 840
METAR SAZS 172300Z 27022KT 9999 SCT060 09/02 Q1018
Observed Flight Rules
Nov-17 @ 23:00 UTC
(37 minutes ago)
VFR
Wind Visibility
270° at 22 knots 10,000+ meters
Clouds
  • Scattered at 6,000' AGL
Temperature Dewpoint
9°C / 48°F 2°C / 36°F
Humidity Altimeter Pressure
62% 30.06" Hg 1018 hPa